Allenstown, New Hampshire
Current Conditions -  °F | °C
As of 12:51 PM on Thursday 30 Oct 2014 (Local Time) from KCON Reporting Station
Overcast Overcast  
Wind Chill: 52°   Ceiling: 7000
Heat Index: 52°   Visibility: 10mi
Dew Point: 39°   Wind: 8mph
Humidity: 61%   Direction: 320°NW
Pressure: 29.92"   Gusts: NA
Location:  43.1606°N, 71.4143°W
Report Text: KCON 301651Z AUTO 32007KT 10SM FEW037 OVC070 11/04 A2992 RMK AO2 SLP133 T01110039
Loading
Personal Weather Stations






























Interactive Weather Map
Tropical Storm Tracking
New forecast layout! Learn more

10-Day Weather Forecast

Advertisements
Track Severe Weather on mobile